sensor_id;sensor_type;location;lat;lon;timestamp;temperature;humidity
6496;DHT22;3281;47.658;9.166;2023-05-14T00:00:10;11.70;1.00
6496;DHT22;3281;47.658;9.166;2023-05-14T00:02:39;11.60;1.00
6496;DHT22;3281;47.658;9.166;2023-05-14T00:05:06;11.70;1.00
6496;DHT22;3281;47.658;9.166;2023-05-14T00:07:33;11.70;1.00
6496;DHT22;3281;47.658;9.166;2023-05-14T00:10:00;11.70;1.00
6496;DHT22;3281;47.658;9.166;2023-05-14T00:12:26;11.80;1.00
6496;DHT22;3281;47.658;9.166;2023-05-14T00:14:55;11.80;1.00
6496;DHT22;3281;47.658;9.166;2023-05-14T00:17:21;11.80;1.00
6496;DHT22;3281;47.658;9.166;2023-05-14T00:19:50;11.90;1.00
6496;DHT22;3281;47.658;9.166;2023-05-14T00:22:16;12.00;1.00
6496;DHT22;3281;47.658;9.166;2023-05-14T00:24:43;12.10;1.00
6496;DHT22;3281;47.658;9.166;2023-05-14T00:27:10;12.20;1.00
6496;DHT22;3281;47.658;9.166;2023-05-14T00:29:36;12.20;1.00
6496;DHT22;3281;47.658;9.166;2023-05-14T00:32:03;12.20;1.00
6496;DHT22;3281;47.658;9.166;2023-05-14T00:34:30;12.20;1.00
6496;DHT22;3281;47.658;9.166;2023-05-14T00:36:58;12.20;1.00
6496;DHT22;3281;47.658;9.166;2023-05-14T00:39:25;12.30;1.00
6496;DHT22;3281;47.658;9.166;2023-05-14T00:41:51;12.30;1.00
6496;DHT22;3281;47.658;9.166;2023-05-14T00:44:18;12.40;1.00
6496;DHT22;3281;47.658;9.166;2023-05-14T00:46:45;12.30;1.00
6496;DHT22;3281;47.658;9.166;2023-05-14T00:49:12;12.30;1.00
6496;DHT22;3281;47.658;9.166;2023-05-14T00:51:39;12.30;1.00
6496;DHT22;3281;47.658;9.166;2023-05-14T00:54:07;12.40;1.00
6496;DHT22;3281;47.658;9.166;2023-05-14T00:56:34;12.30;1.00
6496;DHT22;3281;47.658;9.166;2023-05-14T00:59:01;12.30;1.00
6496;DHT22;3281;47.658;9.166;2023-05-14T01:01:28;12.20;1.00
6496;DHT22;3281;47.658;9.166;2023-05-14T01:03:55;12.20;1.00
6496;DHT22;3281;47.658;9.166;2023-05-14T01:06:28;12.30;1.00
6496;DHT22;3281;47.658;9.166;2023-05-14T01:09:02;12.30;1.00
6496;DHT22;3281;47.658;9.166;2023-05-14T01:11:39;12.40;1.00
6496;DHT22;3281;47.658;9.166;2023-05-14T01:14:13;12.40;1.00
6496;DHT22;3281;47.658;9.166;2023-05-14T01:16:44;12.40;1.00
6496;DHT22;3281;47.658;9.166;2023-05-14T01:19:20;12.40;1.00
6496;DHT22;3281;47.658;9.166;2023-05-14T01:21:48;12.50;1.00
6496;DHT22;3281;47.658;9.166;2023-05-14T01:24:15;12.50;1.00
6496;DHT22;3281;47.658;9.166;2023-05-14T01:26:42;12.50;1.00
6496;DHT22;3281;47.658;9.166;2023-05-14T01:29:15;12.60;1.00
6496;DHT22;3281;47.658;9.166;2023-05-14T01:31:43;12.60;1.00
6496;DHT22;3281;47.658;9.166;2023-05-14T01:34:11;12.60;1.00
6496;DHT22;3281;47.658;9.166;2023-05-14T01:36:40;12.70;1.00
6496;DHT22;3281;47.658;9.166;2023-05-14T01:39:09;12.70;1.00
6496;DHT22;3281;47.658;9.166;2023-05-14T01:41:37;12.80;1.00
6496;DHT22;3281;47.658;9.166;2023-05-14T01:44:04;12.80;1.00
6496;DHT22;3281;47.658;9.166;2023-05-14T01:46:31;12.70;1.00
6496;DHT22;3281;47.658;9.166;2023-05-14T01:48:58;12.70;1.00
6496;DHT22;3281;47.658;9.166;2023-05-14T01:51:25;12.70;1.00
6496;DHT22;3281;47.658;9.166;2023-05-14T01:53:52;12.70;1.00
6496;DHT22;3281;47.658;9.166;2023-05-14T01:56:21;12.70;1.00
6496;DHT22;3281;47.658;9.166;2023-05-14T01:58:48;12.70;1.00
6496;DHT22;3281;47.658;9.166;2023-05-14T02:01:15;12.60;1.00
6496;DHT22;3281;47.658;9.166;2023-05-14T02:03:41;12.60;1.00
6496;DHT22;3281;47.658;9.166;2023-05-14T02:06:08;12.70;1.00
6496;DHT22;3281;47.658;9.166;2023-05-14T02:08:35;12.70;1.00
6496;DHT22;3281;47.658;9.166;2023-05-14T02:11:01;12.70;1.00
6496;DHT22;3281;47.658;9.166;2023-05-14T02:13:29;12.80;1.00
6496;DHT22;3281;47.658;9.166;2023-05-14T02:15:56;12.80;1.00
6496;DHT22;3281;47.658;9.166;2023-05-14T02:18:23;12.70;1.00
6496;DHT22;3281;47.658;9.166;2023-05-14T02:20:49;12.70;1.00
6496;DHT22;3281;47.658;9.166;2023-05-14T02:23:16;12.70;1.00
6496;DHT22;3281;47.658;9.166;2023-05-14T02:25:43;12.70;1.00
6496;DHT22;3281;47.658;9.166;2023-05-14T02:28:10;12.70;1.00
6496;DHT22;3281;47.658;9.166;2023-05-14T02:30:38;12.70;1.00
6496;DHT22;3281;47.658;9.166;2023-05-14T02:33:04;12.70;1.00
6496;DHT22;3281;47.658;9.166;2023-05-14T02:35:31;12.70;1.00
6496;DHT22;3281;47.658;9.166;2023-05-14T02:37:58;12.70;1.00
6496;DHT22;3281;47.658;9.166;2023-05-14T02:40:24;12.70;1.00
6496;DHT22;3281;47.658;9.166;2023-05-14T02:42:52;12.70;1.00
6496;DHT22;3281;47.658;9.166;2023-05-14T02:45:18;12.70;1.00
6496;DHT22;3281;47.658;9.166;2023-05-14T02:47:47;12.60;1.00
6496;DHT22;3281;47.658;9.166;2023-05-14T02:50:13;12.60;1.00
6496;DHT22;3281;47.658;9.166;2023-05-14T02:52:40;12.50;1.00
6496;DHT22;3281;47.658;9.166;2023-05-14T02:55:08;12.40;1.00
6496;DHT22;3281;47.658;9.166;2023-05-14T02:57:36;12.40;1.00
6496;DHT22;3281;47.658;9.166;2023-05-14T03:00:03;12.40;1.00
6496;DHT22;3281;47.658;9.166;2023-05-14T03:02:30;12.40;1.00
6496;DHT22;3281;47.658;9.166;2023-05-14T03:04:58;12.30;1.00
6496;DHT22;3281;47.658;9.166;2023-05-14T03:07:24;12.40;1.00
6496;DHT22;3281;47.658;9.166;2023-05-14T03:09:51;12.40;1.00
6496;DHT22;3281;47.658;9.166;2023-05-14T03:12:19;12.30;1.00
6496;DHT22;3281;47.658;9.166;2023-05-14T03:14:46;12.30;1.00
6496;DHT22;3281;47.658;9.166;2023-05-14T03:17:12;12.30;1.00
6496;DHT22;3281;47.658;9.166;2023-05-14T03:19:39;12.30;1.00
6496;DHT22;3281;47.658;9.166;2023-05-14T03:22:07;12.30;1.00
6496;DHT22;3281;47.658;9.166;2023-05-14T03:24:36;12.30;1.00
6496;DHT22;3281;47.658;9.166;2023-05-14T03:27:03;12.30;1.00
6496;DHT22;3281;47.658;9.166;2023-05-14T03:29:29;12.30;1.00
6496;DHT22;3281;47.658;9.166;2023-05-14T03:31:56;12.20;1.00
6496;DHT22;3281;47.658;9.166;2023-05-14T03:34:23;12.30;1.00
6496;DHT22;3281;47.658;9.166;2023-05-14T03:36:50;12.30;1.00
6496;DHT22;3281;47.658;9.166;2023-05-14T03:39:18;12.30;1.00
6496;DHT22;3281;47.658;9.166;2023-05-14T03:41:45;12.30;1.00
6496;DHT22;3281;47.658;9.166;2023-05-14T03:44:12;12.40;1.00
6496;DHT22;3281;47.658;9.166;2023-05-14T03:46:39;12.30;1.00
6496;DHT22;3281;47.658;9.166;2023-05-14T03:49:06;12.40;1.00
6496;DHT22;3281;47.658;9.166;2023-05-14T03:51:33;12.30;1.00
6496;DHT22;3281;47.658;9.166;2023-05-14T03:54:00;12.30;1.00
6496;DHT22;3281;47.658;9.166;2023-05-14T03:56:28;12.30;1.00
6496;DHT22;3281;47.658;9.166;2023-05-14T03:58:54;12.30;1.00
6496;DHT22;3281;47.658;9.166;2023-05-14T04:01:21;12.30;1.00
6496;DHT22;3281;47.658;9.166;2023-05-14T04:03:48;12.30;1.00
6496;DHT22;3281;47.658;9.166;2023-05-14T04:06:14;12.30;1.00
6496;DHT22;3281;47.658;9.166;2023-05-14T04:08:41;12.30;1.00
6496;DHT22;3281;47.658;9.166;2023-05-14T04:11:08;12.40;1.00
6496;DHT22;3281;47.658;9.166;2023-05-14T04:13:36;12.30;1.00
6496;DHT22;3281;47.658;9.166;2023-05-14T04:16:03;12.40;1.00
6496;DHT22;3281;47.658;9.166;2023-05-14T04:18:29;12.40;1.00
6496;DHT22;3281;47.658;9.166;2023-05-14T04:20:59;12.50;1.00
6496;DHT22;3281;47.658;9.166;2023-05-14T04:23:26;12.40;1.00
6496;DHT22;3281;47.658;9.166;2023-05-14T04:25:53;12.40;1.00
6496;DHT22;3281;47.658;9.166;2023-05-14T04:28:19;12.40;1.00
6496;DHT22;3281;47.658;9.166;2023-05-14T04:30:48;12.40;1.00
6496;DHT22;3281;47.658;9.166;2023-05-14T04:33:15;12.40;1.00
6496;DHT22;3281;47.658;9.166;2023-05-14T04:35:43;12.40;1.00
6496;DHT22;3281;47.658;9.166;2023-05-14T04:38:09;12.40;1.00
6496;DHT22;3281;47.658;9.166;2023-05-14T04:40:38;12.40;1.00
6496;DHT22;3281;47.658;9.166;2023-05-14T04:43:05;12.50;1.00
6496;DHT22;3281;47.658;9.166;2023-05-14T04:45:33;12.50;1.00
6496;DHT22;3281;47.658;9.166;2023-05-14T04:48:01;12.50;1.00
6496;DHT22;3281;47.658;9.166;2023-05-14T04:50:28;12.50;1.00
6496;DHT22;3281;47.658;9.166;2023-05-14T04:52:54;12.50;1.00
6496;DHT22;3281;47.658;9.166;2023-05-14T04:55:21;12.60;1.00
6496;DHT22;3281;47.658;9.166;2023-05-14T04:57:48;12.50;1.00
6496;DHT22;3281;47.658;9.166;2023-05-14T05:00:15;12.50;1.00
6496;DHT22;3281;47.658;9.166;2023-05-14T05:02:43;12.50;1.00
6496;DHT22;3281;47.658;9.166;2023-05-14T05:05:11;12.50;1.00
6496;DHT22;3281;47.658;9.166;2023-05-14T05:07:38;12.50;1.00
6496;DHT22;3281;47.658;9.166;2023-05-14T05:10:06;12.60;1.00
6496;DHT22;3281;47.658;9.166;2023-05-14T05:12:33;12.60;1.00
6496;DHT22;3281;47.658;9.166;2023-05-14T05:15:00;12.60;1.00
6496;DHT22;3281;47.658;9.166;2023-05-14T05:17:28;12.50;1.00
6496;DHT22;3281;47.658;9.166;2023-05-14T05:19:55;12.60;1.80
6496;DHT22;3281;47.658;9.166;2023-05-14T05:22:23;12.50;1.00
6496;DHT22;3281;47.658;9.166;2023-05-14T05:24:50;12.50;1.90
6496;DHT22;3281;47.658;9.166;2023-05-14T05:27:16;12.50;5.00
6496;DHT22;3281;47.658;9.166;2023-05-14T05:29:45;12.50;3.20
6496;DHT22;3281;47.658;9.166;2023-05-14T05:32:12;12.50;5.50
6496;DHT22;3281;47.658;9.166;2023-05-14T05:34:40;12.50;1.70
6496;DHT22;3281;47.658;9.166;2023-05-14T05:37:06;12.40;2.90
6496;DHT22;3281;47.658;9.166;2023-05-14T05:39:38;12.40;3.00
6496;DHT22;3281;47.658;9.166;2023-05-14T05:42:06;12.50;4.90
6496;DHT22;3281;47.658;9.166;2023-05-14T05:44:32;12.50;3.50
6496;DHT22;3281;47.658;9.166;2023-05-14T05:46:59;12.50;5.00
6496;DHT22;3281;47.658;9.166;2023-05-14T05:49:26;12.50;4.70
6496;DHT22;3281;47.658;9.166;2023-05-14T05:51:52;12.50;4.70
6496;DHT22;3281;47.658;9.166;2023-05-14T05:54:19;12.50;5.40
6496;DHT22;3281;47.658;9.166;2023-05-14T05:56:47;12.60;5.80
6496;DHT22;3281;47.658;9.166;2023-05-14T05:59:14;12.60;9.10
6496;DHT22;3281;47.658;9.166;2023-05-14T06:01:41;12.70;8.70
6496;DHT22;3281;47.658;9.166;2023-05-14T06:04:08;12.70;9.40
6496;DHT22;3281;47.658;9.166;2023-05-14T06:06:34;12.70;10.00
6496;DHT22;3281;47.658;9.166;2023-05-14T06:09:01;12.80;10.50
6496;DHT22;3281;47.658;9.166;2023-05-14T06:11:29;12.90;10.60
6496;DHT22;3281;47.658;9.166;2023-05-14T06:13:57;12.90;10.30
6496;DHT22;3281;47.658;9.166;2023-05-14T06:16:23;12.90;11.60
6496;DHT22;3281;47.658;9.166;2023-05-14T06:18:50;12.90;12.50
6496;DHT22;3281;47.658;9.166;2023-05-14T06:21:19;13.00;18.20
6496;DHT22;3281;47.658;9.166;2023-05-14T06:23:45;13.10;23.10
6496;DHT22;3281;47.658;9.166;2023-05-14T06:26:12;13.00;24.30
6496;DHT22;3281;47.658;9.166;2023-05-14T06:28:39;13.00;23.90
6496;DHT22;3281;47.658;9.166;2023-05-14T06:31:07;12.90;22.50
6496;DHT22;3281;47.658;9.166;2023-05-14T06:33:33;13.00;24.60
6496;DHT22;3281;47.658;9.166;2023-05-14T06:36:03;12.90;25.00
6496;DHT22;3281;47.658;9.166;2023-05-14T06:38:31;12.90;25.10
6496;DHT22;3281;47.658;9.166;2023-05-14T06:40:57;12.90;24.50
6496;DHT22;3281;47.658;9.166;2023-05-14T06:43:24;12.80;24.10
6496;DHT22;3281;47.658;9.166;2023-05-14T06:45:51;12.90;25.70
6496;DHT22;3281;47.658;9.166;2023-05-14T06:48:19;12.90;24.40
6496;DHT22;3281;47.658;9.166;2023-05-14T06:50:47;12.90;26.10
6496;DHT22;3281;47.658;9.166;2023-05-14T06:53:14;12.90;25.00
6496;DHT22;3281;47.658;9.166;2023-05-14T06:55:41;12.90;26.50
6496;DHT22;3281;47.658;9.166;2023-05-14T06:58:08;12.80;26.40
6496;DHT22;3281;47.658;9.166;2023-05-14T07:00:35;12.80;28.00
6496;DHT22;3281;47.658;9.166;2023-05-14T07:03:01;12.90;33.60
6496;DHT22;3281;47.658;9.166;2023-05-14T07:05:29;12.90;29.20
6496;DHT22;3281;47.658;9.166;2023-05-14T07:07:56;12.90;31.90
6496;DHT22;3281;47.658;9.166;2023-05-14T07:10:23;13.00;33.50
6496;DHT22;3281;47.658;9.166;2023-05-14T07:12:50;12.90;31.60
6496;DHT22;3281;47.658;9.166;2023-05-14T07:15:17;13.00;32.10
6496;DHT22;3281;47.658;9.166;2023-05-14T07:17:44;13.10;31.60
6496;DHT22;3281;47.658;9.166;2023-05-14T07:20:11;13.20;35.10
6496;DHT22;3281;47.658;9.166;2023-05-14T07:22:39;13.10;34.70
6496;DHT22;3281;47.658;9.166;2023-05-14T07:25:07;13.20;34.70
6496;DHT22;3281;47.658;9.166;2023-05-14T07:27:33;13.30;34.00
6496;DHT22;3281;47.658;9.166;2023-05-14T07:30:00;13.40;34.40
6496;DHT22;3281;47.658;9.166;2023-05-14T07:32:27;13.30;33.90
6496;DHT22;3281;47.658;9.166;2023-05-14T07:34:53;13.20;30.10
6496;DHT22;3281;47.658;9.166;2023-05-14T07:37:20;13.30;33.60
6496;DHT22;3281;47.658;9.166;2023-05-14T07:39:48;13.30;32.30
6496;DHT22;3281;47.658;9.166;2023-05-14T07:42:15;13.40;32.60
6496;DHT22;3281;47.658;9.166;2023-05-14T07:44:42;13.40;29.00
6496;DHT22;3281;47.658;9.166;2023-05-14T07:47:08;13.50;29.00
6496;DHT22;3281;47.658;9.166;2023-05-14T07:49:35;13.60;31.70
6496;DHT22;3281;47.658;9.166;2023-05-14T07:52:02;13.70;29.20
6496;DHT22;3281;47.658;9.166;2023-05-14T07:54:29;13.70;30.60
6496;DHT22;3281;47.658;9.166;2023-05-14T07:56:57;13.90;32.80
6496;DHT22;3281;47.658;9.166;2023-05-14T07:59:23;13.80;24.10
6496;DHT22;3281;47.658;9.166;2023-05-14T08:01:50;14.00;27.40
6496;DHT22;3281;47.658;9.166;2023-05-14T08:04:17;14.00;29.20
6496;DHT22;3281;47.658;9.166;2023-05-14T08:06:44;13.90;28.10
6496;DHT22;3281;47.658;9.166;2023-05-14T08:09:10;14.10;25.30
6496;DHT22;3281;47.658;9.166;2023-05-14T08:11:37;14.00;21.70
6496;DHT22;3281;47.658;9.166;2023-05-14T08:14:06;13.90;21.00
6496;DHT22;3281;47.658;9.166;2023-05-14T08:16:32;14.00;21.50
6496;DHT22;3281;47.658;9.166;2023-05-14T08:18:59;14.00;26.60
6496;DHT22;3281;47.658;9.166;2023-05-14T08:21:26;14.00;21.50
6496;DHT22;3281;47.658;9.166;2023-05-14T08:23:53;13.90;11.40
6496;DHT22;3281;47.658;9.166;2023-05-14T08:26:19;14.00;18.30
6496;DHT22;3281;47.658;9.166;2023-05-14T08:28:47;13.90;16.50
6496;DHT22;3281;47.658;9.166;2023-05-14T08:31:15;13.90;20.30
6496;DHT22;3281;47.658;9.166;2023-05-14T08:33:42;13.80;15.10
6496;DHT22;3281;47.658;9.166;2023-05-14T08:36:08;13.80;16.20
6496;DHT22;3281;47.658;9.166;2023-05-14T08:38:35;13.90;19.80
6496;DHT22;3281;47.658;9.166;2023-05-14T08:41:05;13.80;20.30
6496;DHT22;3281;47.658;9.166;2023-05-14T08:43:40;13.90;17.90
6496;DHT22;3281;47.658;9.166;2023-05-14T08:46:12;13.80;15.30
6496;DHT22;3281;47.658;9.166;2023-05-14T08:48:41;13.90;17.00
6496;DHT22;3281;47.658;9.166;2023-05-14T08:51:09;14.10;17.30
6496;DHT22;3281;47.658;9.166;2023-05-14T08:53:35;14.00;11.30
6496;DHT22;3281;47.658;9.166;2023-05-14T08:56:06;14.20;16.30
6496;DHT22;3281;47.658;9.166;2023-05-14T08:58:33;14.20;16.30
6496;DHT22;3281;47.658;9.166;2023-05-14T09:01:00;14.30;11.50
6496;DHT22;3281;47.658;9.166;2023-05-14T09:03:27;14.20;11.40
6496;DHT22;3281;47.658;9.166;2023-05-14T09:05:57;14.30;11.50
6496;DHT22;3281;47.658;9.166;2023-05-14T09:08:24;14.30;10.90
6496;DHT22;3281;47.658;9.166;2023-05-14T09:10:51;14.30;11.20
6496;DHT22;3281;47.658;9.166;2023-05-14T09:13:17;14.30;9.60
6496;DHT22;3281;47.658;9.166;2023-05-14T09:15:45;14.30;13.30
6496;DHT22;3281;47.658;9.166;2023-05-14T09:18:11;14.30;8.50
6496;DHT22;3281;47.658;9.166;2023-05-14T09:20:38;14.20;8.20
6496;DHT22;3281;47.658;9.166;2023-05-14T09:23:06;14.10;4.20
6496;DHT22;3281;47.658;9.166;2023-05-14T09:25:33;14.20;4.50
6496;DHT22;3281;47.658;9.166;2023-05-14T09:28:05;14.30;8.10
6496;DHT22;3281;47.658;9.166;2023-05-14T09:30:32;14.40;8.50
6496;DHT22;3281;47.658;9.166;2023-05-14T09:33:01;14.40;10.20
6496;DHT22;3281;47.658;9.166;2023-05-14T09:35:28;14.50;11.10
6496;DHT22;3281;47.658;9.166;2023-05-14T09:37:56;14.40;2.00
6496;DHT22;3281;47.658;9.166;2023-05-14T09:40:24;14.60;9.30
6496;DHT22;3281;47.658;9.166;2023-05-14T09:42:51;14.60;11.30
6496;DHT22;3281;47.658;9.166;2023-05-14T09:45:18;14.60;11.70
6496;DHT22;3281;47.658;9.166;2023-05-14T09:47:45;14.50;3.60
6496;DHT22;3281;47.658;9.166;2023-05-14T09:50:12;14.50;9.50
6496;DHT22;3281;47.658;9.166;2023-05-14T09:52:39;14.50;11.50
6496;DHT22;3281;47.658;9.166;2023-05-14T09:55:06;14.60;11.60
6496;DHT22;3281;47.658;9.166;2023-05-14T09:57:34;14.70;9.60
6496;DHT22;3281;47.658;9.166;2023-05-14T10:00:01;14.70;8.30
6496;DHT22;3281;47.658;9.166;2023-05-14T10:02:34;14.80;3.00
6496;DHT22;3281;47.658;9.166;2023-05-14T10:05:04;14.80;1.30
6496;DHT22;3281;47.658;9.166;2023-05-14T10:07:36;15.00;1.00
6496;DHT22;3281;47.658;9.166;2023-05-14T10:10:06;15.10;1.00
6496;DHT22;3281;47.658;9.166;2023-05-14T10:12:38;15.30;1.00
6496;DHT22;3281;47.658;9.166;2023-05-14T10:15:11;15.60;5.80
6496;DHT22;3281;47.658;9.166;2023-05-14T10:17:40;15.70;4.80
6496;DHT22;3281;47.658;9.166;2023-05-14T10:20:11;15.60;1.00
6496;DHT22;3281;47.658;9.166;2023-05-14T10:22:38;15.60;1.00
6496;DHT22;3281;47.658;9.166;2023-05-14T10:25:06;15.50;1.00
6496;DHT22;3281;47.658;9.166;2023-05-14T10:27:34;15.60;1.00
6496;DHT22;3281;47.658;9.166;2023-05-14T10:30:05;15.60;1.00
6496;DHT22;3281;47.658;9.166;2023-05-14T10:32:36;15.40;1.00
6496;DHT22;3281;47.658;9.166;2023-05-14T10:35:15;15.60;1.00
6496;DHT22;3281;47.658;9.166;2023-05-14T10:37:43;15.60;1.00
6496;DHT22;3281;47.658;9.166;2023-05-14T10:40:11;15.70;1.00
6496;DHT22;3281;47.658;9.166;2023-05-14T10:42:40;15.80;1.00
6496;DHT22;3281;47.658;9.166;2023-05-14T10:45:09;16.00;1.00
6496;DHT22;3281;47.658;9.166;2023-05-14T10:47:38;16.60;1.00
6496;DHT22;3281;47.658;9.166;2023-05-14T10:50:07;16.70;1.00
6496;DHT22;3281;47.658;9.166;2023-05-14T10:52:34;16.50;1.00
6496;DHT22;3281;47.658;9.166;2023-05-14T10:55:02;16.40;1.00
6496;DHT22;3281;47.658;9.166;2023-05-14T10:57:33;16.30;1.00
6496;DHT22;3281;47.658;9.166;2023-05-14T11:00:03;16.70;1.00
6496;DHT22;3281;47.658;9.166;2023-05-14T11:02:33;16.40;1.00
6496;DHT22;3281;47.658;9.166;2023-05-14T11:05:02;16.20;1.00
6496;DHT22;3281;47.658;9.166;2023-05-14T11:07:31;16.20;1.00
6496;DHT22;3281;47.658;9.166;2023-05-14T11:10:03;16.00;1.00
6496;DHT22;3281;47.658;9.166;2023-05-14T11:12:30;16.20;1.00
6496;DHT22;3281;47.658;9.166;2023-05-14T11:14:58;16.00;1.00
6496;DHT22;3281;47.658;9.166;2023-05-14T11:17:27;16.20;1.00
6496;DHT22;3281;47.658;9.166;2023-05-14T11:19:55;16.40;1.00
6496;DHT22;3281;47.658;9.166;2023-05-14T11:22:22;16.40;1.00
6496;DHT22;3281;47.658;9.166;2023-05-14T11:24:49;16.40;1.00
6496;DHT22;3281;47.658;9.166;2023-05-14T11:27:16;16.40;1.00
6496;DHT22;3281;47.658;9.166;2023-05-14T11:29:43;16.40;1.00
6496;DHT22;3281;47.658;9.166;2023-05-14T11:32:11;16.40;1.00
6496;DHT22;3281;47.658;9.166;2023-05-14T11:34:40;16.30;1.00
6496;DHT22;3281;47.658;9.166;2023-05-14T11:37:09;16.40;1.00
6496;DHT22;3281;47.658;9.166;2023-05-14T11:39:37;16.50;1.00
6496;DHT22;3281;47.658;9.166;2023-05-14T11:42:09;16.70;1.00
6496;DHT22;3281;47.658;9.166;2023-05-14T11:44:39;16.70;1.00
6496;DHT22;3281;47.658;9.166;2023-05-14T11:47:06;16.90;1.00
6496;DHT22;3281;47.658;9.166;2023-05-14T11:49:33;17.00;1.00
6496;DHT22;3281;47.658;9.166;2023-05-14T11:52:04;16.90;1.00
6496;DHT22;3281;47.658;9.166;2023-05-14T11:54:32;16.80;1.00
6496;DHT22;3281;47.658;9.166;2023-05-14T11:57:02;16.90;1.00
6496;DHT22;3281;47.658;9.166;2023-05-14T11:59:32;16.80;1.00
6496;DHT22;3281;47.658;9.166;2023-05-14T12:02:00;16.80;1.00
6496;DHT22;3281;47.658;9.166;2023-05-14T12:04:28;17.00;1.00
6496;DHT22;3281;47.658;9.166;2023-05-14T12:06:57;16.90;1.00
6496;DHT22;3281;47.658;9.166;2023-05-14T12:09:25;16.90;1.00
6496;DHT22;3281;47.658;9.166;2023-05-14T12:11:52;17.00;1.00
6496;DHT22;3281;47.658;9.166;2023-05-14T12:14:20;17.10;1.00
6496;DHT22;3281;47.658;9.166;2023-05-14T12:16:48;17.00;1.00
6496;DHT22;3281;47.658;9.166;2023-05-14T12:19:16;17.10;1.00
6496;DHT22;3281;47.658;9.166;2023-05-14T12:21:44;17.10;1.00
6496;DHT22;3281;47.658;9.166;2023-05-14T12:24:12;17.20;1.00
6496;DHT22;3281;47.658;9.166;2023-05-14T12:26:43;17.40;1.00
6496;DHT22;3281;47.658;9.166;2023-05-14T12:29:12;17.40;1.00
6496;DHT22;3281;47.658;9.166;2023-05-14T12:31:44;17.20;1.00
6496;DHT22;3281;47.658;9.166;2023-05-14T12:34:11;17.30;1.00
6496;DHT22;3281;47.658;9.166;2023-05-14T12:36:37;17.20;1.00
6496;DHT22;3281;47.658;9.166;2023-05-14T12:39:04;17.20;1.00
6496;DHT22;3281;47.658;9.166;2023-05-14T12:41:31;17.00;1.00
6496;DHT22;3281;47.658;9.166;2023-05-14T12:44:00;17.10;1.00
6496;DHT22;3281;47.658;9.166;2023-05-14T12:46:27;17.40;1.00
6496;DHT22;3281;47.658;9.166;2023-05-14T12:48:55;17.50;1.00
6496;DHT22;3281;47.658;9.166;2023-05-14T12:51:22;17.70;1.00
6496;DHT22;3281;47.658;9.166;2023-05-14T12:53:49;17.60;1.00
6496;DHT22;3281;47.658;9.166;2023-05-14T12:56:16;17.50;1.00
6496;DHT22;3281;47.658;9.166;2023-05-14T12:58:43;17.40;1.00
6496;DHT22;3281;47.658;9.166;2023-05-14T13:01:12;17.20;1.00
6496;DHT22;3281;47.658;9.166;2023-05-14T13:03:39;17.10;1.00
6496;DHT22;3281;47.658;9.166;2023-05-14T13:06:06;16.80;1.00
6496;DHT22;3281;47.658;9.166;2023-05-14T13:08:34;16.80;1.00
6496;DHT22;3281;47.658;9.166;2023-05-14T13:11:00;16.80;1.00
6496;DHT22;3281;47.658;9.166;2023-05-14T13:13:27;16.80;1.00
6496;DHT22;3281;47.658;9.166;2023-05-14T13:15:54;16.80;1.00
6496;DHT22;3281;47.658;9.166;2023-05-14T13:18:22;16.70;1.00
6496;DHT22;3281;47.658;9.166;2023-05-14T13:20:50;16.80;1.00
6496;DHT22;3281;47.658;9.166;2023-05-14T13:23:17;16.70;1.00
6496;DHT22;3281;47.658;9.166;2023-05-14T13:25:44;16.80;1.00
6496;DHT22;3281;47.658;9.166;2023-05-14T13:28:10;16.70;1.00
6496;DHT22;3281;47.658;9.166;2023-05-14T13:30:37;16.80;1.00
6496;DHT22;3281;47.658;9.166;2023-05-14T13:33:04;16.90;1.00
6496;DHT22;3281;47.658;9.166;2023-05-14T13:35:32;16.90;1.00
6496;DHT22;3281;47.658;9.166;2023-05-14T13:37:59;16.80;1.00
6496;DHT22;3281;47.658;9.166;2023-05-14T13:40:26;16.70;1.00
6496;DHT22;3281;47.658;9.166;2023-05-14T13:42:52;16.60;1.00
6496;DHT22;3281;47.658;9.166;2023-05-14T13:45:19;16.60;1.00
6496;DHT22;3281;47.658;9.166;2023-05-14T13:47:46;16.70;1.00
6496;DHT22;3281;47.658;9.166;2023-05-14T13:50:13;16.70;1.00
6496;DHT22;3281;47.658;9.166;2023-05-14T13:52:41;16.80;1.00
6496;DHT22;3281;47.658;9.166;2023-05-14T13:55:08;17.00;1.00
6496;DHT22;3281;47.658;9.166;2023-05-14T13:57:34;16.90;1.00
6496;DHT22;3281;47.658;9.166;2023-05-14T14:00:02;16.80;1.00
6496;DHT22;3281;47.658;9.166;2023-05-14T14:02:29;16.80;1.00
6496;DHT22;3281;47.658;9.166;2023-05-14T14:04:56;16.70;1.00
6496;DHT22;3281;47.658;9.166;2023-05-14T14:07:23;16.70;1.00
6496;DHT22;3281;47.658;9.166;2023-05-14T14:09:51;16.70;1.00
6496;DHT22;3281;47.658;9.166;2023-05-14T14:12:17;17.00;1.00
6496;DHT22;3281;47.658;9.166;2023-05-14T14:14:44;17.00;1.00
6496;DHT22;3281;47.658;9.166;2023-05-14T14:17:11;16.90;1.00
6496;DHT22;3281;47.658;9.166;2023-05-14T14:19:37;17.00;1.00
6496;DHT22;3281;47.658;9.166;2023-05-14T14:22:04;16.80;1.00
6496;DHT22;3281;47.658;9.166;2023-05-14T14:24:31;16.90;1.00
6496;DHT22;3281;47.658;9.166;2023-05-14T14:26:59;16.80;1.00
6496;DHT22;3281;47.658;9.166;2023-05-14T14:29:26;17.00;1.00
6496;DHT22;3281;47.658;9.166;2023-05-14T14:31:55;17.00;1.00
6496;DHT22;3281;47.658;9.166;2023-05-14T14:34:22;17.10;1.00
6496;DHT22;3281;47.658;9.166;2023-05-14T14:36:48;17.10;1.00
6496;DHT22;3281;47.658;9.166;2023-05-14T14:39:15;17.20;1.00
6496;DHT22;3281;47.658;9.166;2023-05-14T14:41:42;17.20;1.00
6496;DHT22;3281;47.658;9.166;2023-05-14T14:44:10;17.20;1.00
6496;DHT22;3281;47.658;9.166;2023-05-14T14:46:36;17.00;1.00
6496;DHT22;3281;47.658;9.166;2023-05-14T14:49:03;16.90;1.00
6496;DHT22;3281;47.658;9.166;2023-05-14T14:51:30;16.80;1.00
6496;DHT22;3281;47.658;9.166;2023-05-14T14:53:57;16.70;1.00
6496;DHT22;3281;47.658;9.166;2023-05-14T14:56:25;16.70;1.00
6496;DHT22;3281;47.658;9.166;2023-05-14T14:58:52;16.60;1.00
6496;DHT22;3281;47.658;9.166;2023-05-14T15:01:20;16.50;1.00
6496;DHT22;3281;47.658;9.166;2023-05-14T15:03:47;16.50;1.00
6496;DHT22;3281;47.658;9.166;2023-05-14T15:06:14;16.40;1.00
6496;DHT22;3281;47.658;9.166;2023-05-14T15:08:40;16.20;1.00
6496;DHT22;3281;47.658;9.166;2023-05-14T15:11:07;16.20;1.00
6496;DHT22;3281;47.658;9.166;2023-05-14T15:13:34;16.20;1.00
6496;DHT22;3281;47.658;9.166;2023-05-14T15:16:00;16.20;1.00
6496;DHT22;3281;47.658;9.166;2023-05-14T15:18:28;16.20;1.00
6496;DHT22;3281;47.658;9.166;2023-05-14T15:20:55;16.20;1.00
6496;DHT22;3281;47.658;9.166;2023-05-14T15:23:22;16.20;1.00
6496;DHT22;3281;47.658;9.166;2023-05-14T15:25:49;16.20;1.00
6496;DHT22;3281;47.658;9.166;2023-05-14T15:28:15;16.20;1.00
6496;DHT22;3281;47.658;9.166;2023-05-14T15:30:42;16.20;1.00
6496;DHT22;3281;47.658;9.166;2023-05-14T15:33:09;16.20;1.00
6496;DHT22;3281;47.658;9.166;2023-05-14T15:35:37;16.20;1.00
6496;DHT22;3281;47.658;9.166;2023-05-14T15:38:05;16.30;1.00
6496;DHT22;3281;47.658;9.166;2023-05-14T15:40:32;16.40;1.00
6496;DHT22;3281;47.658;9.166;2023-05-14T15:42:59;16.50;1.00
6496;DHT22;3281;47.658;9.166;2023-05-14T15:45:26;16.40;1.00
6496;DHT22;3281;47.658;9.166;2023-05-14T15:47:53;16.50;1.00
6496;DHT22;3281;47.658;9.166;2023-05-14T15:50:20;16.40;1.00
6496;DHT22;3281;47.658;9.166;2023-05-14T15:52:48;16.40;1.00
6496;DHT22;3281;47.658;9.166;2023-05-14T15:55:15;16.30;1.00
6496;DHT22;3281;47.658;9.166;2023-05-14T15:57:42;16.20;1.00
6496;DHT22;3281;47.658;9.166;2023-05-14T16:00:09;16.20;1.00
6496;DHT22;3281;47.658;9.166;2023-05-14T16:02:37;16.20;1.00
6496;DHT22;3281;47.658;9.166;2023-05-14T16:05:05;16.20;1.00
6496;DHT22;3281;47.658;9.166;2023-05-14T16:07:32;16.10;1.00
6496;DHT22;3281;47.658;9.166;2023-05-14T16:10:00;16.10;1.00
6496;DHT22;3281;47.658;9.166;2023-05-14T16:12:27;16.00;1.00
6496;DHT22;3281;47.658;9.166;2023-05-14T16:14:54;15.80;1.00